sensor_id;sensor_type;location;lat;lon;timestamp;pressure;altitude;pressure_sealevel;temperature;humidity
14041;BME280;7095;51.388;6.196;2023-03-23T00:00:21;55949.28;;;-145.32;100.00
14041;BME280;7095;51.388;6.196;2023-03-23T00:02:52;55987.09;;;-145.32;100.00
14041;BME280;7095;51.388;6.196;2023-03-23T00:05:19;55973.16;;;-145.32;100.00
14041;BME280;7095;51.388;6.196;2023-03-23T00:07:47;55985.09;;;-145.32;100.00
14041;BME280;7095;51.388;6.196;2023-03-23T00:10:19;55947.28;;;-145.32;100.00
14041;BME280;7095;51.388;6.196;2023-03-23T00:12:46;55889.59;;;-145.32;100.00
14041;BME280;7095;51.388;6.196;2023-03-23T00:15:16;55875.66;;;-145.32;100.00
14041;BME280;7095;51.388;6.196;2023-03-23T00:17:44;55977.13;;;-145.32;100.00
14041;BME280;7095;51.388;6.196;2023-03-23T00:20:11;55927.41;;;-145.32;100.00
14041;BME280;7095;51.388;6.196;2023-03-23T00:22:39;55875.66;;;-145.32;100.00
14041;BME280;7095;51.388;6.196;2023-03-23T00:25:07;55843.84;;;-145.32;100.00
14041;BME280;7095;51.388;6.196;2023-03-23T00:27:36;55861.75;;;-145.32;100.00
14041;BME280;7095;51.388;6.196;2023-03-23T00:30:05;55810.03;;;-145.32;100.00
14041;BME280;7095;51.388;6.196;2023-03-23T00:32:33;55758.28;;;-145.32;100.00
14041;BME280;7095;51.388;6.196;2023-03-23T00:35:01;55706.56;;;-145.32;100.00
14041;BME280;7095;51.388;6.196;2023-03-23T00:37:30;55744.38;;;-145.32;100.00
14041;BME280;7095;51.388;6.196;2023-03-23T00:39:59;55700.59;;;-145.32;100.00
14041;BME280;7095;51.388;6.196;2023-03-23T00:42:27;55666.78;;;-145.32;100.00
14041;BME280;7095;51.388;6.196;2023-03-23T00:44:56;55638.94;;;-145.32;100.00
14041;BME280;7095;51.388;6.196;2023-03-23T00:47:26;55666.78;;;-145.32;100.00
14041;BME280;7095;51.388;6.196;2023-03-23T00:49:54;55686.69;;;-145.32;100.00
14041;BME280;7095;51.388;6.196;2023-03-23T00:52:22;55694.63;;;-145.32;100.00
14041;BME280;7095;51.388;6.196;2023-03-23T00:54:50;55630.97;;;-145.32;100.00
14041;BME280;7095;51.388;6.196;2023-03-23T00:57:18;55666.78;;;-145.32;100.00
14041;BME280;7095;51.388;6.196;2023-03-23T00:59:50;55630.97;;;-145.32;100.00
14041;BME280;7095;51.388;6.196;2023-03-23T01:02:19;55617.06;;;-145.32;100.00
14041;BME280;7095;51.388;6.196;2023-03-23T01:04:50;55601.13;;;-145.32;100.00
14041;BME280;7095;51.388;6.196;2023-03-23T01:07:19;55491.72;;;-145.32;100.00
14041;BME280;7095;51.388;6.196;2023-03-23T01:09:47;55523.56;;;-145.32;100.00
14041;BME280;7095;51.388;6.196;2023-03-23T01:12:14;55479.78;;;-145.32;100.00
14041;BME280;7095;51.388;6.196;2023-03-23T01:14:42;55493.72;;;-145.32;100.00
14041;BME280;7095;51.388;6.196;2023-03-23T01:17:09;55485.75;;;-145.32;100.00
14041;BME280;7095;51.388;6.196;2023-03-23T01:19:38;55505.66;;;-145.32;100.00
14041;BME280;7095;51.388;6.196;2023-03-23T01:22:08;55529.53;;;-145.32;100.00
14041;BME280;7095;51.388;6.196;2023-03-23T01:24:35;55491.72;;;-145.32;100.00
14041;BME280;7095;51.388;6.196;2023-03-23T01:27:03;55477.81;;;-145.32;100.00
14041;BME280;7095;51.388;6.196;2023-03-23T01:29:33;55438.03;;;-145.32;100.00
14041;BME280;7095;51.388;6.196;2023-03-23T01:32:00;55394.25;;;-145.32;100.00
14041;BME280;7095;51.388;6.196;2023-03-23T01:34:43;55392.25;;;-145.32;100.00
14041;BME280;7095;51.388;6.196;2023-03-23T01:37:11;55455.91;;;-145.32;100.00
14041;BME280;7095;51.388;6.196;2023-03-23T01:39:39;55499.69;;;-145.32;100.00
14041;BME280;7095;51.388;6.196;2023-03-23T01:42:09;55543.44;;;-145.32;100.00
14041;BME280;7095;51.388;6.196;2023-03-23T01:48:03;55535.50;;;-145.32;100.00
14041;BME280;7095;51.388;6.196;2023-03-23T01:50:37;55587.22;;;-145.32;100.00
14041;BME280;7095;51.388;6.196;2023-03-23T01:53:08;55654.84;;;-145.32;100.00
14041;BME280;7095;51.388;6.196;2023-03-23T01:55:40;55664.78;;;-145.32;100.00
14041;BME280;7095;51.388;6.196;2023-03-23T01:58:09;55678.72;;;-145.32;100.00
14041;BME280;7095;51.388;6.196;2023-03-23T02:00:39;55698.63;;;-145.32;100.00
14041;BME280;7095;51.388;6.196;2023-03-23T02:03:09;55762.28;;;-145.32;100.00
14041;BME280;7095;51.388;6.196;2023-03-23T02:05:41;55810.03;;;-145.32;100.00
14041;BME280;7095;51.388;6.196;2023-03-23T02:08:19;55770.22;;;-145.32;100.00
14041;BME280;7095;51.388;6.196;2023-03-23T02:10:46;55816.00;;;-145.32;100.00
14041;BME280;7095;51.388;6.196;2023-03-23T02:13:15;55873.69;;;-145.32;100.00
14041;BME280;7095;51.388;6.196;2023-03-23T02:15:50;55923.41;;;-145.32;100.00
14041;BME280;7095;51.388;6.196;2023-03-23T02:18:35;55925.41;;;-145.32;100.00
14041;BME280;7095;51.388;6.196;2023-03-23T02:21:26;55969.19;;;-145.32;100.00
14041;BME280;7095;51.388;6.196;2023-03-23T02:24:25;55981.13;;;-145.32;100.00
14041;BME280;7095;51.388;6.196;2023-03-23T02:27:00;56038.81;;;-145.32;100.00
14041;BME280;7095;51.388;6.196;2023-03-23T02:29:53;55949.28;;;-145.32;100.00
14041;BME280;7095;51.388;6.196;2023-03-23T02:32:55;55991.06;;;-145.32;100.00
14041;BME280;7095;51.388;6.196;2023-03-23T02:35:31;56038.81;;;-145.32;100.00
14041;BME280;7095;51.388;6.196;2023-03-23T02:38:02;56132.31;;;-145.32;100.00
14041;BME280;7095;51.388;6.196;2023-03-23T02:40:36;56219.88;;;-145.32;100.00
14041;BME280;7095;51.388;6.196;2023-03-23T02:43:07;56116.41;;;-145.32;100.00
14041;BME280;7095;51.388;6.196;2023-03-23T02:45:36;56331.28;;;-145.32;100.00
14041;BME280;7095;51.388;6.196;2023-03-23T02:48:05;56494.44;;;-145.32;100.00
14041;BME280;7095;51.388;6.196;2023-03-23T02:50:37;56556.13;;;-145.32;100.00
14041;BME280;7095;51.388;6.196;2023-03-23T02:53:09;56582.00;;;-145.32;100.00
14041;BME280;7095;51.388;6.196;2023-03-23T02:55:38;56637.72;;;-145.32;100.00
14041;BME280;7095;51.388;6.196;2023-03-23T02:58:12;56691.44;;;-145.32;100.00
14041;BME280;7095;51.388;6.196;2023-03-23T03:00:42;56792.94;;;-145.32;100.00
14041;BME280;7095;51.388;6.196;2023-03-23T03:03:13;56788.94;;;-145.32;100.00
14041;BME280;7095;51.388;6.196;2023-03-23T03:05:51;56862.59;;;-145.32;100.00
14041;BME280;7095;51.388;6.196;2023-03-23T03:08:30;56993.94;;;-145.32;100.00
14041;BME280;7095;51.388;6.196;2023-03-23T03:11:08;57031.75;;;-145.32;100.00
14041;BME280;7095;51.388;6.196;2023-03-23T03:13:45;57035.72;;;-145.32;100.00
14041;BME280;7095;51.388;6.196;2023-03-23T03:16:24;57011.84;;;-145.32;100.00
14041;BME280;7095;51.388;6.196;2023-03-23T03:18:56;57063.59;;;-145.32;100.00
14041;BME280;7095;51.388;6.196;2023-03-23T03:21:29;57045.66;;;-145.32;100.00
14041;BME280;7095;51.388;6.196;2023-03-23T03:24:00;56987.97;;;-145.32;100.00
14041;BME280;7095;51.388;6.196;2023-03-23T03:26:30;56882.47;;;-145.32;100.00
14041;BME280;7095;51.388;6.196;2023-03-23T03:29:18;56944.19;;;-145.32;100.00
14041;BME280;7095;51.388;6.196;2023-03-23T03:31:50;56934.22;;;-145.32;100.00
14041;BME280;7095;51.388;6.196;2023-03-23T03:34:22;56964.06;;;-145.32;100.00
14041;BME280;7095;51.388;6.196;2023-03-23T03:36:54;57051.63;;;-145.32;100.00
14041;BME280;7095;51.388;6.196;2023-03-23T03:39:25;57081.50;;;-145.32;100.00
14041;BME280;7095;51.388;6.196;2023-03-23T03:41:54;56964.06;;;-145.32;100.00
14041;BME280;7095;51.388;6.196;2023-03-23T03:44:22;56920.28;;;-145.32;100.00
14041;BME280;7095;51.388;6.196;2023-03-23T03:46:49;56952.13;;;-145.32;100.00
14041;BME280;7095;51.388;6.196;2023-03-23T03:49:17;56898.41;;;-145.32;100.00
14041;BME280;7095;51.388;6.196;2023-03-23T03:51:44;56918.31;;;-145.32;100.00
14041;BME280;7095;51.388;6.196;2023-03-23T03:54:20;56753.13;;;-145.32;100.00
14041;BME280;7095;51.388;6.196;2023-03-23T03:56:47;56733.22;;;-145.32;100.00
14041;BME280;7095;51.388;6.196;2023-03-23T03:59:36;56653.63;;;-145.32;100.00
14041;BME280;7095;51.388;6.196;2023-03-23T04:02:22;56570.06;;;-145.32;100.00
14041;BME280;7095;51.388;6.196;2023-03-23T04:04:51;56504.41;;;-145.32;100.00
14041;BME280;7095;51.388;6.196;2023-03-23T04:07:19;56500.41;;;-145.32;100.00
14041;BME280;7095;51.388;6.196;2023-03-23T04:09:51;56387.00;;;-145.32;100.00
14041;BME280;7095;51.388;6.196;2023-03-23T04:12:20;56430.78;;;-145.32;100.00
14041;BME280;7095;51.388;6.196;2023-03-23T04:14:57;56470.56;;;-145.32;100.00
14041;BME280;7095;51.388;6.196;2023-03-23T04:17:32;56319.34;;;-145.32;100.00
14041;BME280;7095;51.388;6.196;2023-03-23T04:20:00;56347.19;;;-145.32;100.00
14041;BME280;7095;51.388;6.196;2023-03-23T04:22:32;56392.97;;;-145.32;100.00
14041;BME280;7095;51.388;6.196;2023-03-23T04:25:02;56452.66;;;-145.32;100.00
14041;BME280;7095;51.388;6.196;2023-03-23T04:27:33;56496.44;;;-145.32;100.00
14041;BME280;7095;51.388;6.196;2023-03-23T04:30:08;56355.16;;;-145.32;100.00
14041;BME280;7095;51.388;6.196;2023-03-23T04:32:41;56402.91;;;-145.32;100.00
14041;BME280;7095;51.388;6.196;2023-03-23T04:35:13;56458.63;;;-145.32;100.00
14041;BME280;7095;51.388;6.196;2023-03-23T04:37:47;56456.63;;;-145.32;100.00
14041;BME280;7095;51.388;6.196;2023-03-23T04:40:19;56414.84;;;-145.32;100.00
14041;BME280;7095;51.388;6.196;2023-03-23T04:42:58;56420.81;;;-145.32;100.00
14041;BME280;7095;51.388;6.196;2023-03-23T04:45:42;56414.84;;;-145.32;100.00
14041;BME280;7095;51.388;6.196;2023-03-23T04:48:13;56428.78;;;-145.32;100.00
14041;BME280;7095;51.388;6.196;2023-03-23T04:50:56;56454.66;;;-145.32;100.00
14041;BME280;7095;51.388;6.196;2023-03-23T04:53:29;56387.00;;;-145.32;100.00
14041;BME280;7095;51.388;6.196;2023-03-23T04:55:58;56394.97;;;-145.32;100.00
14041;BME280;7095;51.388;6.196;2023-03-23T04:58:31;56369.09;;;-145.32;100.00
14041;BME280;7095;51.388;6.196;2023-03-23T05:01:17;56313.38;;;-145.32;100.00
14041;BME280;7095;51.388;6.196;2023-03-23T05:03:55;56307.41;;;-145.32;100.00
14041;BME280;7095;51.388;6.196;2023-03-23T05:06:22;56293.47;;;-145.32;100.00
14041;BME280;7095;51.388;6.196;2023-03-23T05:08:53;56257.66;;;-145.32;100.00
14041;BME280;7095;51.388;6.196;2023-03-23T05:11:24;56158.19;;;-145.32;100.00
14041;BME280;7095;51.388;6.196;2023-03-23T05:13:52;56120.38;;;-145.32;100.00
14041;BME280;7095;51.388;6.196;2023-03-23T05:16:19;56050.75;;;-145.32;100.00
14041;BME280;7095;51.388;6.196;2023-03-23T05:18:47;55997.03;;;-145.32;100.00
14041;BME280;7095;51.388;6.196;2023-03-23T05:21:16;55905.50;;;-145.32;100.00
14041;BME280;7095;51.388;6.196;2023-03-23T05:23:49;55873.69;;;-145.32;100.00
14041;BME280;7095;51.388;6.196;2023-03-23T05:26:21;55794.09;;;-145.32;100.00
14041;BME280;7095;51.388;6.196;2023-03-23T05:28:56;55788.13;;;-145.32;100.00
14041;BME280;7095;51.388;6.196;2023-03-23T05:31:37;55756.31;;;-145.32;100.00
14041;BME280;7095;51.388;6.196;2023-03-23T05:34:04;55682.69;;;-145.32;100.00
14041;BME280;7095;51.388;6.196;2023-03-23T05:36:45;55619.03;;;-145.32;100.00
14041;BME280;7095;51.388;6.196;2023-03-23T05:39:34;55569.31;;;-145.32;100.00
14041;BME280;7095;51.388;6.196;2023-03-23T05:42:17;55495.69;;;-145.32;100.00
14041;BME280;7095;51.388;6.196;2023-03-23T05:44:55;55459.91;;;-145.32;100.00
14041;BME280;7095;51.388;6.196;2023-03-23T05:47:24;55356.47;;;-145.32;100.00
14041;BME280;7095;51.388;6.196;2023-03-23T05:49:56;55302.75;;;-145.32;100.00
14041;BME280;7095;51.388;6.196;2023-03-23T05:52:25;55259.00;;;-145.32;100.00
14041;BME280;7095;51.388;6.196;2023-03-23T05:54:53;55235.13;;;-145.32;100.00
14041;BME280;7095;51.388;6.196;2023-03-23T05:57:22;55165.50;;;-145.32;100.00
14041;BME280;7095;51.388;6.196;2023-03-23T06:00:02;55143.63;;;-145.32;100.00
14041;BME280;7095;51.388;6.196;2023-03-23T06:02:38;55081.97;;;-145.32;100.00
14041;BME280;7095;51.388;6.196;2023-03-23T06:05:11;55020.31;;;-145.32;100.00
14041;BME280;7095;51.388;6.196;2023-03-23T06:07:42;54952.69;;;-145.32;100.00
14041;BME280;7095;51.388;6.196;2023-03-23T06:10:09;54952.69;;;-145.32;100.00
14041;BME280;7095;51.388;6.196;2023-03-23T06:12:39;54904.94;;;-145.32;100.00
14041;BME280;7095;51.388;6.196;2023-03-23T06:15:41;54853.25;;;-145.32;100.00
14041;BME280;7095;51.388;6.196;2023-03-23T06:18:18;54839.31;;;-145.32;100.00
14041;BME280;7095;51.388;6.196;2023-03-23T06:21:03;54803.53;;;-145.32;100.00
14041;BME280;7095;51.388;6.196;2023-03-23T06:23:51;54759.78;;;-145.32;100.00
14041;BME280;7095;51.388;6.196;2023-03-23T06:26:20;54755.78;;;-145.32;100.00
14041;BME280;7095;51.388;6.196;2023-03-23T06:28:55;54712.03;;;-145.32;100.00
14041;BME280;7095;51.388;6.196;2023-03-23T06:31:26;54708.06;;;-145.32;100.00
14041;BME280;7095;51.388;6.196;2023-03-23T06:33:54;54710.06;;;-145.32;100.00
14041;BME280;7095;51.388;6.196;2023-03-23T06:36:25;54642.44;;;-145.32;100.00
14041;BME280;7095;51.388;6.196;2023-03-23T06:39:09;54622.53;;;-145.32;100.00
14041;BME280;7095;51.388;6.196;2023-03-23T06:41:53;54604.66;;;-145.32;100.00
14041;BME280;7095;51.388;6.196;2023-03-23T06:44:21;54584.75;;;-145.32;100.00
14041;BME280;7095;51.388;6.196;2023-03-23T06:46:49;54533.06;;;-145.32;100.00
14041;BME280;7095;51.388;6.196;2023-03-23T06:49:23;54521.13;;;-145.32;100.00
14041;BME280;7095;51.388;6.196;2023-03-23T06:52:13;54493.28;;;-145.32;100.00
14041;BME280;7095;51.388;6.196;2023-03-23T06:54:41;54505.22;;;-145.32;100.00
14041;BME280;7095;51.388;6.196;2023-03-23T06:57:11;54501.22;;;-145.32;100.00
14041;BME280;7095;51.388;6.196;2023-03-23T06:59:38;54471.41;;;-145.32;100.00
14041;BME280;7095;51.388;6.196;2023-03-23T07:02:09;54445.56;;;-145.32;100.00
14041;BME280;7095;51.388;6.196;2023-03-23T07:04:38;54401.81;;;-145.32;100.00
14041;BME280;7095;51.388;6.196;2023-03-23T07:07:10;54457.47;;;-145.32;100.00
14041;BME280;7095;51.388;6.196;2023-03-23T07:09:49;54465.44;;;-145.32;100.00
14041;BME280;7095;51.388;6.196;2023-03-23T07:12:21;54423.69;;;-145.32;100.00
14041;BME280;7095;51.388;6.196;2023-03-23T07:14:50;54455.50;;;-145.32;100.00
14041;BME280;7095;51.388;6.196;2023-03-23T07:17:19;54417.72;;;-145.32;100.00
14041;BME280;7095;51.388;6.196;2023-03-23T07:20:07;54413.72;;;-145.32;100.00
14041;BME280;7095;51.388;6.196;2023-03-23T07:22:35;54389.88;;;-145.32;100.00
14041;BME280;7095;51.388;6.196;2023-03-23T07:25:10;54423.69;;;-145.32;100.00
14041;BME280;7095;51.388;6.196;2023-03-23T07:27:49;54413.72;;;-145.32;100.00
14041;BME280;7095;51.388;6.196;2023-03-23T07:30:17;54350.09;;;-145.32;100.00
14041;BME280;7095;51.388;6.196;2023-03-23T07:32:47;54364.03;;;-145.32;100.00
14041;BME280;7095;51.388;6.196;2023-03-23T07:35:15;54371.97;;;-145.32;100.00
14041;BME280;7095;51.388;6.196;2023-03-23T07:38:09;54369.97;;;-145.32;100.00
14041;BME280;7095;51.388;6.196;2023-03-23T07:40:38;54369.97;;;-145.32;100.00
14041;BME280;7095;51.388;6.196;2023-03-23T07:43:16;54415.72;;;-145.32;100.00
14041;BME280;7095;51.388;6.196;2023-03-23T07:45:56;54350.09;;;-145.32;100.00
14041;BME280;7095;51.388;6.196;2023-03-23T07:48:30;54346.13;;;-145.32;100.00
14041;BME280;7095;51.388;6.196;2023-03-23T07:50:58;54377.94;;;-145.32;100.00
14041;BME280;7095;51.388;6.196;2023-03-23T07:53:28;54366.00;;;-145.32;100.00
14041;BME280;7095;51.388;6.196;2023-03-23T07:56:09;54350.09;;;-145.32;100.00
14041;BME280;7095;51.388;6.196;2023-03-23T07:58:51;54316.28;;;-145.32;100.00
14041;BME280;7095;51.388;6.196;2023-03-23T08:01:19;54318.28;;;-145.32;100.00
14041;BME280;7095;51.388;6.196;2023-03-23T08:04:09;54326.25;;;-145.32;100.00
14041;BME280;7095;51.388;6.196;2023-03-23T08:06:51;54310.34;;;-145.32;100.00
14041;BME280;7095;51.388;6.196;2023-03-23T08:09:57;54292.44;;;-145.32;100.00
14041;BME280;7095;51.388;6.196;2023-03-23T08:12:54;54286.47;;;-145.32;100.00
14041;BME280;7095;51.388;6.196;2023-03-23T08:15:40;54328.22;;;-145.32;100.00
14041;BME280;7095;51.388;6.196;2023-03-23T08:18:13;54286.47;;;-145.32;100.00
14041;BME280;7095;51.388;6.196;2023-03-23T08:21:02;54278.50;;;-145.32;100.00
14041;BME280;7095;51.388;6.196;2023-03-23T08:23:37;54262.59;;;-145.32;100.00
14041;BME280;7095;51.388;6.196;2023-03-23T08:26:25;54248.69;;;-145.32;100.00
14041;BME280;7095;51.388;6.196;2023-03-23T08:29:19;54244.72;;;-145.32;100.00
14041;BME280;7095;51.388;6.196;2023-03-23T08:31:59;54222.84;;;-145.32;100.00
14041;BME280;7095;51.388;6.196;2023-03-23T08:34:49;54177.09;;;-145.32;100.00
14041;BME280;7095;51.388;6.196;2023-03-23T08:37:37;54159.19;;;-145.32;100.00
14041;BME280;7095;51.388;6.196;2023-03-23T08:40:22;54183.06;;;-145.32;100.00
14041;BME280;7095;51.388;6.196;2023-03-23T08:42:59;54222.84;;;-145.32;100.00
14041;BME280;7095;51.388;6.196;2023-03-23T08:45:32;54256.63;;;-145.32;100.00
14041;BME280;7095;51.388;6.196;2023-03-23T08:48:09;54358.06;;;-145.32;100.00
14041;BME280;7095;51.388;6.196;2023-03-23T08:50:55;54533.06;;;-145.32;100.00
14041;BME280;7095;51.388;6.196;2023-03-23T08:53:45;54604.66;;;-145.32;100.00
14041;BME280;7095;51.388;6.196;2023-03-23T08:56:47;55000.41;;;-145.32;100.00
14041;BME280;7095;51.388;6.196;2023-03-23T08:59:34;55511.63;;;-145.32;100.00
14041;BME280;7095;51.388;6.196;2023-03-23T09:02:20;56351.19;;;-145.32;100.00
14041;BME280;7095;51.388;6.196;2023-03-23T09:04:56;57451.69;;;-145.32;100.00
14041;BME280;7095;51.388;6.196;2023-03-23T09:07:38;58793.47;;;-145.32;100.00
14041;BME280;7095;51.388;6.196;2023-03-23T09:10:08;60360.88;;;-145.32;100.00
14041;BME280;7095;51.388;6.196;2023-03-23T09:12:36;62162.19;;;-145.32;100.00
14041;BME280;7095;51.388;6.196;2023-03-23T09:15:04;64231.72;;;-145.32;100.00
14041;BME280;7095;51.388;6.196;2023-03-23T09:17:35;66388.28;;;-145.32;100.00
14041;BME280;7095;51.388;6.196;2023-03-23T09:20:04;70633.59;;;-145.32;100.00
14041;BME280;7095;51.388;6.196;2023-03-23T09:22:36;73490.06;;;-145.32;100.00
14041;BME280;7095;51.388;6.196;2023-03-23T09:25:08;75026.22;;;-145.32;100.00
14041;BME280;7095;51.388;6.196;2023-03-23T09:27:36;78869.66;;;-145.32;100.00
14041;BME280;7095;51.388;6.196;2023-03-23T09:30:06;81947.50;;;-145.32;100.00
14041;BME280;7095;51.388;6.196;2023-03-23T09:32:34;83487.44;;;-145.32;100.00
14041;BME280;7095;51.388;6.196;2023-03-23T09:35:04;83744.16;;;-145.32;100.00
14041;BME280;7095;51.388;6.196;2023-03-23T09:37:33;82717.38;;;-145.32;100.00
14041;BME280;7095;51.388;6.196;2023-03-23T09:40:01;82974.03;;;-145.32;100.00
14041;BME280;7095;51.388;6.196;2023-03-23T09:42:40;81947.50;;;-145.32;100.00
14041;BME280;7095;51.388;6.196;2023-03-23T09:45:19;81947.50;;;-145.32;100.00
14041;BME280;7095;51.388;6.196;2023-03-23T09:48:05;81434.31;;;-145.32;100.00
14041;BME280;7095;51.388;6.196;2023-03-23T09:50:42;81947.50;;;-145.32;100.00
14041;BME280;7095;51.388;6.196;2023-03-23T09:53:16;82204.09;;;-145.32;100.00
14041;BME280;7095;51.388;6.196;2023-03-23T09:55:45;82974.03;;;-145.32;100.00
14041;BME280;7095;51.388;6.196;2023-03-23T09:58:20;81690.91;;;-145.32;100.00
14041;BME280;7095;51.388;6.196;2023-03-23T10:00:54;81947.50;;;-145.32;100.00
14041;BME280;7095;51.388;6.196;2023-03-23T10:03:27;82974.03;;;-145.32;100.00
14041;BME280;7095;51.388;6.196;2023-03-23T10:05:58;81434.31;;;-145.32;100.00
14041;BME280;7095;51.388;6.196;2023-03-23T10:08:27;80664.72;;;-145.32;100.00
14041;BME280;7095;51.388;6.196;2023-03-23T10:11:01;79895.28;;;-145.32;100.00
14041;BME280;7095;51.388;6.196;2023-03-23T10:14:00;82974.03;;;-145.32;100.00
14041;BME280;7095;51.388;6.196;2023-03-23T10:16:36;82460.72;;;-145.32;100.00
14041;BME280;7095;51.388;6.196;2023-03-23T10:19:20;83744.16;;;-145.32;100.00
14041;BME280;7095;51.388;6.196;2023-03-23T10:21:51;85028.06;;;-145.32;100.00
14041;BME280;7095;51.388;6.196;2023-03-23T10:24:21;86055.56;;;-145.32;100.00
14041;BME280;7095;51.388;6.196;2023-03-23T10:26:57;85284.91;;;-145.32;100.00
14041;BME280;7095;51.388;6.196;2023-03-23T10:29:30;85284.91;;;-145.32;100.00
14041;BME280;7095;51.388;6.196;2023-03-23T10:32:01;85028.06;;;-145.32;100.00
14041;BME280;7095;51.388;6.196;2023-03-23T10:34:34;84514.44;;;-145.32;100.00
14041;BME280;7095;51.388;6.196;2023-03-23T10:37:08;85284.91;;;-145.32;100.00
14041;BME280;7095;51.388;6.196;2023-03-23T10:39:45;85028.06;;;-145.32;100.00
14041;BME280;7095;51.388;6.196;2023-03-23T10:42:22;85541.78;;;-145.32;100.00
14041;BME280;7095;51.388;6.196;2023-03-23T10:44:53;85284.91;;;-145.32;100.00
14041;BME280;7095;51.388;6.196;2023-03-23T10:47:21;84257.66;;;-145.32;100.00
14041;BME280;7095;51.388;6.196;2023-03-23T10:49:51;84257.66;;;-145.32;100.00
14041;BME280;7095;51.388;6.196;2023-03-23T10:52:30;85541.78;;;-145.32;100.00
14041;BME280;7095;51.388;6.196;2023-03-23T10:55:04;85798.66;;;-145.32;100.00
14041;BME280;7095;51.388;6.196;2023-03-23T10:57:33;85798.66;;;-145.32;100.00
14041;BME280;7095;51.388;6.196;2023-03-23T11:00:20;86826.34;;;-145.32;100.00
14041;BME280;7095;51.388;6.196;2023-03-23T11:02:59;88111.41;;;-145.32;100.00
14041;BME280;7095;51.388;6.196;2023-03-23T11:05:34;88625.56;;;-145.32;100.00
14041;BME280;7095;51.388;6.196;2023-03-23T11:08:02;88625.56;;;-145.32;100.00
14041;BME280;7095;51.388;6.196;2023-03-23T11:10:36;89654.13;;;-145.32;100.00
14041;BME280;7095;51.388;6.196;2023-03-23T11:13:12;89911.31;;;-145.32;100.00
14041;BME280;7095;51.388;6.196;2023-03-23T11:15:42;89139.81;;;-145.32;100.00
14041;BME280;7095;51.388;6.196;2023-03-23T11:18:19;87083.34;;;-145.32;100.00
14041;BME280;7095;51.388;6.196;2023-03-23T11:20:49;87340.31;;;-145.32;100.00
14041;BME280;7095;51.388;6.196;2023-03-23T11:23:20;88111.41;;;-145.32;100.00
14041;BME280;7095;51.388;6.196;2023-03-23T11:25:55;87854.38;;;-145.32;100.00
14041;BME280;7095;51.388;6.196;2023-03-23T11:28:29;87854.38;;;-145.32;100.00
14041;BME280;7095;51.388;6.196;2023-03-23T11:31:02;86826.34;;;-145.32;100.00
14041;BME280;7095;51.388;6.196;2023-03-23T11:33:36;88111.41;;;-145.32;100.00
14041;BME280;7095;51.388;6.196;2023-03-23T11:36:06;88368.50;;;-145.32;100.00
14041;BME280;7095;51.388;6.196;2023-03-23T11:38:35;86826.34;;;-145.32;100.00
14041;BME280;7095;51.388;6.196;2023-03-23T11:41:09;86569.41;;;-145.32;100.00
14041;BME280;7095;51.388;6.196;2023-03-23T11:43:40;86826.34;;;-145.32;100.00
14041;BME280;7095;51.388;6.196;2023-03-23T11:46:18;86826.34;;;-145.32;100.00
14041;BME280;7095;51.388;6.196;2023-03-23T11:48:52;85541.78;;;-145.32;100.00
14041;BME280;7095;51.388;6.196;2023-03-23T11:51:26;85028.06;;;-145.32;100.00
14041;BME280;7095;51.388;6.196;2023-03-23T11:54:00;85028.06;;;-145.32;100.00
14041;BME280;7095;51.388;6.196;2023-03-23T11:56:34;85541.78;;;-145.32;100.00
14041;BME280;7095;51.388;6.196;2023-03-23T11:59:05;84514.44;;;-145.32;100.00
14041;BME280;7095;51.388;6.196;2023-03-23T12:01:46;84514.44;;;-145.32;100.00
14041;BME280;7095;51.388;6.196;2023-03-23T12:04:33;84771.25;;;-145.32;100.00
14041;BME280;7095;51.388;6.196;2023-03-23T12:07:19;84514.44;;;-145.32;100.00
14041;BME280;7095;51.388;6.196;2023-03-23T12:09:55;82717.38;;;-145.32;100.00
14041;BME280;7095;51.388;6.196;2023-03-23T12:12:32;80921.25;;;-145.32;100.00
14041;BME280;7095;51.388;6.196;2023-03-23T12:15:10;79382.44;;;-145.32;100.00
14041;BME280;7095;51.388;6.196;2023-03-23T12:17:49;78869.66;;;-145.32;100.00
14041;BME280;7095;51.388;6.196;2023-03-23T12:20:31;75538.44;;;-145.32;100.00
14041;BME280;7095;51.388;6.196;2023-03-23T12:23:07;78356.94;;;-145.32;100.00
14041;BME280;7095;51.388;6.196;2023-03-23T12:25:47;70259.97;;;-145.32;100.00
14041;BME280;7095;51.388;6.196;2023-03-23T12:28:22;71187.13;;;-145.32;100.00
14041;BME280;7095;51.388;6.196;2023-03-23T12:30:58;70525.69;;;-145.32;100.00
14041;BME280;7095;51.388;6.196;2023-03-23T12:33:42;65721.81;;;-145.32;100.00
14041;BME280;7095;51.388;6.196;2023-03-23T12:36:22;65478.41;;;-145.32;100.00
14041;BME280;7095;51.388;6.196;2023-03-23T12:39:11;63695.28;;;-145.32;100.00
14041;BME280;7095;51.388;6.196;2023-03-23T12:41:47;63675.31;;;-145.32;100.00
14041;BME280;7095;51.388;6.196;2023-03-23T12:44:21;63465.97;;;-145.32;100.00
14041;BME280;7095;51.388;6.196;2023-03-23T12:49:48;61717.75;;;-145.32;100.00
14041;BME280;7095;51.388;6.196;2023-03-23T12:52:22;59978.41;;;-145.32;100.00
14041;BME280;7095;51.388;6.196;2023-03-23T12:54:54;59376.94;;;-145.32;100.00
14041;BME280;7095;51.388;6.196;2023-03-23T12:57:31;58727.75;;;-145.32;100.00
14041;BME280;7095;51.388;6.196;2023-03-23T13:00:06;57700.50;;;-145.32;100.00
14041;BME280;7095;51.388;6.196;2023-03-23T13:02:43;57382.03;;;-145.32;100.00
14041;BME280;7095;51.388;6.196;2023-03-23T13:05:32;56014.94;;;-145.32;100.00
14041;BME280;7095;51.388;6.196;2023-03-23T13:08:05;56020.91;;;-145.32;100.00
14041;BME280;7095;51.388;6.196;2023-03-23T13:10:39;55376.34;;;-145.32;100.00
14041;BME280;7095;51.388;6.196;2023-03-23T13:13:13;55004.41;;;-145.32;100.00
14041;BME280;7095;51.388;6.196;2023-03-23T13:16:00;54616.56;;;-145.32;100.00
14041;BME280;7095;51.388;6.196;2023-03-23T13:18:38;54417.72;;;-145.32;100.00
14041;BME280;7095;51.388;6.196;2023-03-23T13:21:16;54362.03;;;-145.32;100.00
14041;BME280;7095;51.388;6.196;2023-03-23T13:23:47;54366.00;;;-145.32;100.00